Time;durP1;ratioP1;P1;durP2;ratioP2;P2;SDS_P1;SDS_P2;PMS_P1;PMS_P2;Temp;Humidity;BMP_temperature;BMP_pressure;BME280_temperature;BME280_humidity;BME280_pressure;Samples;Min_cycle;Max_cycle;Signal;HPM_P1;HPM_P2
2022/08/16 00:01:03;;;;;;;4.35;3.95;;;26.40;99.90;;;;;;4219357;28;20222;-75
2022/08/16 00:03:08;;;;;;;4.07;3.78;;;26.40;99.90;;;;;;4219007;28;20254;-75
2022/08/16 00:05:12;;;;;;;4.30;3.90;;;26.40;99.90;;;;;;4226634;28;20214;-75
2022/08/16 00:07:14;;;;;;;4.03;3.72;;;26.40;99.90;;;;;;4225478;28;20267;-75
2022/08/16 00:09:17;;;;;;;4.03;3.47;;;26.40;99.90;;;;;;4216877;28;20255;-75
2022/08/16 00:11:20;;;;;;;5.70;4.07;;;26.40;99.90;;;;;;4217442;28;20218;-75
2022/08/16 00:13:23;;;;;;;4.60;4.20;;;26.40;99.90;;;;;;4218611;28;20728;-75
2022/08/16 00:15:28;;;;;;;5.18;4.18;;;26.40;99.90;;;;;;4228599;28;20217;-75
2022/08/16 00:17:30;;;;;;;4.20;3.80;;;26.30;99.90;;;;;;4217660;27;20679;-75
2022/08/16 00:19:34;;;;;;;4.53;4.13;;;26.40;99.90;;;;;;4229060;27;20645;-75
2022/08/16 00:21:36;;;;;;;3.83;3.53;;;26.30;99.90;;;;;;4222688;27;20274;-75
2022/08/16 00:23:39;;;;;;;4.38;3.97;;;26.30;99.90;;;;;;4224323;28;20213;-75
2022/08/16 00:25:41;;;;;;;4.30;3.92;;;26.40;99.90;;;;;;4224868;27;20225;-75
2022/08/16 00:27:44;;;;;;;4.35;3.95;;;26.30;99.90;;;;;;4230386;28;20246;-75
2022/08/16 00:29:46;;;;;;;3.92;3.60;;;26.30;99.90;;;;;;4230095;28;20213;-75
2022/08/16 00:31:51;;;;;;;4.68;4.28;;;26.30;99.90;;;;;;4229870;28;20210;-75
2022/08/16 00:33:53;;;;;;;4.53;4.13;;;26.40;99.90;;;;;;4229923;28;20229;-75
2022/08/16 00:35:57;;;;;;;4.38;3.95;;;26.30;99.90;;;;;;4230044;28;20670;-75
2022/08/16 00:38:01;;;;;;;4.97;4.10;;;26.30;99.90;;;;;;4227336;28;20263;-75
2022/08/16 00:40:06;;;;;;;5.45;4.35;;;26.30;99.90;;;;;;4231698;27;20234;-75
2022/08/16 00:42:09;;;;;;;5.07;4.20;;;26.30;99.90;;;;;;4216286;28;20264;-75
2022/08/16 00:44:12;;;;;;;4.88;4.28;;;26.30;99.90;;;;;;4221247;28;20615;-75
2022/08/16 00:46:21;;;;;;;4.72;3.90;;;26.30;99.90;;;;;;4229936;28;20286;-75
2022/08/16 00:48:23;;;;;;;4.50;4.10;;;26.30;99.90;;;;;;4239750;27;20569;-75
2022/08/16 00:50:30;;;;;;;4.70;3.80;;;26.30;99.90;;;;;;4238387;27;20205;-75
2022/08/16 00:52:33;;;;;;;4.40;4.00;;;26.30;99.90;;;;;;4230033;27;20222;-75
2022/08/16 00:54:37;;;;;;;4.57;4.18;;;26.30;99.90;;;;;;4230821;27;20270;-75
2022/08/16 00:56:43;;;;;;;5.03;4.53;;;26.30;99.90;;;;;;4216640;27;20234;-75
2022/08/16 00:58:47;;;;;;;4.97;4.47;;;26.30;99.90;;;;;;4220698;28;20254;-75
2022/08/16 01:00:50;;;;;;;5.63;3.83;;;26.30;99.90;;;;;;4225276;28;20237;-75
2022/08/16 01:02:52;;;;;;;4.40;4.00;;;26.30;99.90;;;;;;4232696;27;20274;-75
2022/08/16 01:04:55;;;;;;;4.43;4.03;;;26.30;99.90;;;;;;4237950;27;20213;-75
2022/08/16 01:06:57;;;;;;;4.65;4.13;;;26.20;99.90;;;;;;4241393;27;21053;-75
2022/08/16 01:09:05;;;;;;;4.90;4.38;;;26.20;99.90;;;;;;4233814;27;20640;-75
2022/08/16 01:11:07;;;;;;;5.65;4.60;;;26.30;99.90;;;;;;4232020;27;20239;-75
2022/08/16 01:13:13;;;;;;;4.72;4.28;;;26.30;99.90;;;;;;4225383;27;20211;-75
2022/08/16 01:15:16;;;;;;;6.22;4.63;;;26.30;99.90;;;;;;4223421;28;20225;-75
2022/08/16 01:17:19;;;;;;;4.65;4.25;;;26.20;99.90;;;;;;4214690;27;20214;-75
2022/08/16 01:19:28;;;;;;;4.47;4.07;;;26.20;99.90;;;;;;4229410;28;20217;-75
2022/08/16 01:21:38;;;;;;;4.53;4.13;;;26.20;99.90;;;;;;4236657;27;20216;-75
2022/08/16 01:24:13;;;;;;;4.63;3.97;;;26.20;99.90;;;;;;4240108;27;20664;-75
2022/08/16 01:26:16;;;;;;;4.28;3.88;;;26.20;99.90;;;;;;4203193;28;21012;-75
2022/08/16 01:28:20;;;;;;;4.97;4.25;;;26.20;99.90;;;;;;4216231;28;20264;-75
2022/08/16 01:30:26;;;;;;;4.82;4.28;;;26.20;99.90;;;;;;4219402;28;20211;-75
2022/08/16 01:32:31;;;;;;;4.20;3.83;;;26.20;99.90;;;;;;4234337;27;20257;-75
2022/08/16 01:34:34;;;;;;;5.95;4.50;;;26.20;99.90;;;;;;4238720;27;20213;-75
2022/08/16 01:36:36;;;;;;;5.20;4.20;;;26.20;99.90;;;;;;4231518;27;20239;-75
2022/08/16 01:38:40;;;;;;;5.32;4.82;;;26.20;99.90;;;;;;4220834;27;20683;-75
2022/08/16 01:40:44;;;;;;;4.70;4.25;;;26.20;99.90;;;;;;4224228;28;20233;-75
2022/08/16 01:42:49;;;;;;;5.25;4.43;;;26.20;99.90;;;;;;4219475;28;20222;-75
2022/08/16 01:44:51;;;;;;;4.45;4.05;;;26.20;99.90;;;;;;4214184;28;20650;-75
2022/08/16 01:46:56;;;;;;;4.85;4.45;;;26.20;99.90;;;;;;4220159;28;20226;-75
2022/08/16 01:49:01;;;;;;;5.18;4.63;;;26.20;99.90;;;;;;4222899;27;20271;-75
2022/08/16 01:51:04;;;;;;;5.00;4.47;;;26.20;99.90;;;;;;4213041;28;20260;-75
2022/08/16 01:53:06;;;;;;;5.05;4.25;;;26.20;99.90;;;;;;4215692;27;20636;-75
2022/08/16 01:55:10;;;;;;;4.97;4.47;;;26.20;99.90;;;;;;4235510;27;20217;-75
2022/08/16 01:57:13;;;;;;;5.10;4.70;;;26.20;99.90;;;;;;4227092;27;20229;-75
2022/08/16 01:59:16;;;;;;;5.00;4.22;;;26.20;99.90;;;;;;4225517;28;20258;-75
2022/08/16 02:01:18;;;;;;;4.47;4.07;;;26.20;99.90;;;;;;4215382;28;21366;-75
2022/08/16 02:03:21;;;;;;;4.88;4.47;;;26.20;99.90;;;;;;4212673;28;20226;-75
2022/08/16 02:05:24;;;;;;;5.05;4.65;;;26.20;99.90;;;;;;4221615;28;20286;-75
2022/08/16 02:07:26;;;;;;;5.28;4.68;;;26.20;99.90;;;;;;4215385;28;20230;-75
2022/08/16 02:09:28;;;;;;;6.38;4.60;;;26.20;99.90;;;;;;4223084;28;20247;-75
2022/08/16 02:11:30;;;;;;;4.35;3.95;;;26.10;99.90;;;;;;4217356;28;20271;-75
2022/08/16 02:13:34;;;;;;;4.63;4.22;;;26.20;99.90;;;;;;4216372;28;20222;-75
2022/08/16 02:15:39;;;;;;;4.97;4.57;;;26.20;99.90;;;;;;4226452;27;20222;-75
2022/08/16 02:17:42;;;;;;;4.88;4.38;;;26.10;99.90;;;;;;4217254;27;20674;-75
2022/08/16 02:19:47;;;;;;;4.40;3.92;;;26.10;99.90;;;;;;4224967;27;20266;-75
2022/08/16 02:21:52;;;;;;;4.60;4.18;;;26.10;99.90;;;;;;4224117;28;20274;-75
2022/08/16 02:23:54;;;;;;;4.50;4.18;;;26.10;99.90;;;;;;4224475;27;20209;-70
2022/08/16 02:25:57;;;;;;;4.72;4.32;;;26.10;99.90;;;;;;4218382;28;20259;-70
2022/08/16 02:27:59;;;;;;;4.63;4.22;;;26.10;99.90;;;;;;4225555;27;20213;-70
2022/08/16 02:30:06;;;;;;;4.55;4.15;;;26.10;99.90;;;;;;4220462;28;20268;-70
2022/08/16 02:32:11;;;;;;;4.85;4.45;;;26.10;99.90;;;;;;4218383;27;20221;-70
2022/08/16 02:34:13;;;;;;;5.05;4.60;;;26.10;99.90;;;;;;4228163;27;20205;-70
2022/08/16 02:36:16;;;;;;;4.80;4.30;;;26.10;99.90;;;;;;4214613;27;20215;-70
2022/08/16 02:38:19;;;;;;;5.40;4.90;;;26.10;99.90;;;;;;4216704;28;20973;-70
2022/08/16 02:40:22;;;;;;;5.18;4.68;;;26.10;99.90;;;;;;4217633;28;20240;-70
2022/08/16 02:42:25;;;;;;;5.25;4.75;;;26.10;99.90;;;;;;4216327;27;20650;-71
2022/08/16 02:44:27;;;;;;;6.75;4.60;;;26.10;99.90;;;;;;4222338;28;20677;-70
2022/08/16 02:46:31;;;;;;;4.95;4.55;;;26.10;99.90;;;;;;4219090;28;20628;-70
2022/08/16 02:48:34;;;;;;;4.97;4.57;;;26.10;99.90;;;;;;4222306;27;20221;-70
2022/08/16 02:50:37;;;;;;;4.60;4.20;;;26.10;99.90;;;;;;4214292;28;20546;-70
2022/08/16 02:52:40;;;;;;;6.75;5.25;;;26.10;99.90;;;;;;4215048;28;20233;-70
2022/08/16 02:54:42;;;;;;;4.90;4.50;;;26.10;99.90;;;;;;4220980;27;20221;-70
2022/08/16 02:56:45;;;;;;;6.75;4.78;;;26.10;99.90;;;;;;4218018;28;20217;-70
2022/08/16 02:58:50;;;;;;;5.18;4.68;;;26.00;99.90;;;;;;4212619;28;20222;-70
2022/08/16 03:00:53;;;;;;;6.00;4.97;;;26.00;99.90;;;;;;4212656;28;20235;-70
2022/08/16 03:02:57;;;;;;;4.72;4.00;;;26.00;99.90;;;;;;4218077;28;20267;-70
2022/08/16 03:04:59;;;;;;;5.20;4.70;;;26.10;99.90;;;;;;4213670;28;20619;-71
2022/08/16 03:07:02;;;;;;;4.82;4.40;;;26.10;99.90;;;;;;4218003;28;20226;-71
2022/08/16 03:09:05;;;;;;;5.90;4.88;;;26.10;99.90;;;;;;4221633;28;20334;-70
2022/08/16 03:11:07;;;;;;;5.60;5.10;;;26.00;99.90;;;;;;4217329;28;20260;-70
2022/08/16 03:13:11;;;;;;;5.25;4.82;;;26.00;99.90;;;;;;4219981;28;20206;-75
2022/08/16 03:15:14;;;;;;;5.28;4.78;;;26.10;99.90;;;;;;4223131;28;20278;-75
2022/08/16 03:17:17;;;;;;;5.22;4.68;;;26.00;99.90;;;;;;4220566;28;20295;-75
2022/08/16 03:19:20;;;;;;;5.05;4.65;;;26.00;99.90;;;;;;4220078;28;20320;-75
2022/08/16 03:21:23;;;;;;;5.30;4.80;;;26.00;99.90;;;;;;4219160;28;20234;-75
2022/08/16 03:23:25;;;;;;;5.53;5.03;;;26.00;99.90;;;;;;4214434;28;20286;-75
2022/08/16 03:25:27;;;;;;;5.57;5.07;;;26.00;99.90;;;;;;4217444;28;20218;-75
2022/08/16 03:27:31;;;;;;;5.35;4.85;;;26.00;99.90;;;;;;4215172;28;20291;-75
2022/08/16 03:29:34;;;;;;;5.35;4.72;;;26.00;99.90;;;;;;4217902;28;20222;-75
2022/08/16 03:31:36;;;;;;;5.20;4.70;;;26.00;99.90;;;;;;4223953;28;20239;-75
2022/08/16 03:33:38;;;;;;;5.10;4.60;;;26.00;99.90;;;;;;4222289;28;20701;-75
2022/08/16 03:35:43;;;;;;;5.30;4.80;;;26.00;99.90;;;;;;4216680;28;20275;-75
2022/08/16 03:37:46;;;;;;;5.45;4.90;;;26.00;99.90;;;;;;4215225;28;20222;-75
2022/08/16 03:39:48;;;;;;;5.60;5.07;;;26.00;99.90;;;;;;4213823;28;20214;-75
2022/08/16 03:41:51;;;;;;;6.10;5.07;;;25.90;99.90;;;;;;4221056;28;20291;-75
2022/08/16 03:43:54;;;;;;;5.68;5.18;;;26.00;99.90;;;;;;4214193;28;20596;-75
2022/08/16 03:45:57;;;;;;;5.82;4.78;;;26.00;99.90;;;;;;4214597;28;20225;-75
2022/08/16 03:48:01;;;;;;;5.50;5.00;;;25.90;99.90;;;;;;4223654;28;20258;-75
2022/08/16 03:50:05;;;;;;;5.40;4.90;;;25.90;99.90;;;;;;4216651;28;20261;-75
2022/08/16 03:52:09;;;;;;;5.18;4.75;;;25.90;99.90;;;;;;4219083;28;20278;-75
2022/08/16 03:54:12;;;;;;;4.82;4.30;;;25.90;99.90;;;;;;4221819;28;20259;-75
2022/08/16 03:56:14;;;;;;;5.57;4.70;;;25.90;99.90;;;;;;4223613;28;20214;-75
2022/08/16 03:58:17;;;;;;;5.10;4.68;;;25.90;99.90;;;;;;4222212;28;20218;-75
2022/08/16 04:00:22;;;;;;;6.05;5.53;;;25.90;99.90;;;;;;4222971;28;20648;-75
2022/08/16 04:02:24;;;;;;;5.32;4.82;;;26.00;99.90;;;;;;4223794;28;20233;-75
2022/08/16 04:04:27;;;;;;;5.82;5.05;;;25.90;99.90;;;;;;4212878;28;20655;-75
2022/08/16 04:06:29;;;;;;;5.40;4.80;;;25.90;99.90;;;;;;4220109;28;20263;-75
2022/08/16 04:08:33;;;;;;;5.47;4.97;;;25.90;99.90;;;;;;4222765;28;20286;-75
2022/08/16 04:10:35;;;;;;;4.95;4.55;;;25.90;99.90;;;;;;4216467;28;20218;-71
2022/08/16 04:12:38;;;;;;;5.32;4.80;;;25.90;99.90;;;;;;4223924;28;20267;-70
2022/08/16 04:14:40;;;;;;;5.03;4.63;;;25.90;99.90;;;;;;4218588;28;20218;-70
2022/08/16 04:16:43;;;;;;;5.50;5.00;;;25.90;99.90;;;;;;4222517;28;20287;-70
2022/08/16 04:18:45;;;;;;;5.15;4.68;;;25.90;99.90;;;;;;4214602;28;20215;-70
2022/08/16 04:20:47;;;;;;;5.38;4.82;;;25.90;99.90;;;;;;4218835;28;20613;-70
2022/08/16 04:22:50;;;;;;;5.18;4.68;;;25.90;99.90;;;;;;4220790;28;20726;-70
2022/08/16 04:24:53;;;;;;;5.38;4.78;;;25.90;99.90;;;;;;4218286;28;20217;-70
2022/08/16 04:26:56;;;;;;;5.35;4.88;;;25.90;99.90;;;;;;4214398;28;20572;-71
2022/08/16 04:28:58;;;;;;;5.75;5.10;;;25.90;99.90;;;;;;4218314;28;21006;-70
2022/08/16 04:31:00;;;;;;;5.57;5.07;;;25.90;99.90;;;;;;4217863;28;21226;-70
2022/08/16 04:33:03;;;;;;;5.57;5.07;;;25.90;99.90;;;;;;4220963;27;20570;-70
2022/08/16 04:35:06;;;;;;;5.63;4.70;;;25.90;99.90;;;;;;4221118;27;20275;-70
2022/08/16 04:37:09;;;;;;;5.80;5.28;;;25.90;99.90;;;;;;4223047;28;20214;-70
2022/08/16 04:39:11;;;;;;;5.13;4.63;;;25.90;99.90;;;;;;4228485;27;20217;-70
2022/08/16 04:41:15;;;;;;;6.30;5.22;;;25.90;99.90;;;;;;4224881;27;20321;-70
2022/08/16 04:43:17;;;;;;;5.78;5.05;;;25.90;99.90;;;;;;4222242;28;20214;-70
2022/08/16 04:45:20;;;;;;;5.80;5.30;;;25.90;99.90;;;;;;4229372;27;20971;-70
2022/08/16 04:47:25;;;;;;;5.93;5.32;;;25.90;99.90;;;;;;4226206;28;20242;-70
2022/08/16 04:49:27;;;;;;;5.80;5.30;;;25.90;99.90;;;;;;4220826;28;20239;-70
2022/08/16 04:51:29;;;;;;;5.78;4.97;;;25.80;99.90;;;;;;4225465;28;20262;-71
2022/08/16 04:53:32;;;;;;;5.60;5.15;;;25.80;99.90;;;;;;4226756;28;20568;-70
2022/08/16 04:55:34;;;;;;;6.05;5.43;;;25.90;99.90;;;;;;4220154;28;20218;-70
2022/08/16 04:57:39;;;;;;;5.80;5.20;;;25.90;99.90;;;;;;4222537;28;20271;-70
2022/08/16 04:59:41;;;;;;;6.82;5.28;;;25.90;99.90;;;;;;4214286;28;20230;-70
2022/08/16 05:01:43;;;;;;;5.78;5.28;;;25.90;99.90;;;;;;4220784;28;20319;-70
2022/08/16 05:03:46;;;;;;;5.85;5.35;;;25.80;99.90;;;;;;4221339;28;20218;-70
2022/08/16 05:05:50;;;;;;;5.90;5.40;;;25.90;99.90;;;;;;4214954;28;20226;-70
2022/08/16 05:07:52;;;;;;;5.30;4.80;;;25.90;99.90;;;;;;4216193;28;20211;-70
2022/08/16 05:09:54;;;;;;;7.05;4.88;;;25.80;99.90;;;;;;4220136;28;20214;-71
2022/08/16 05:11:56;;;;;;;5.35;4.80;;;25.90;99.90;;;;;;4213695;28;20625;-70
2022/08/16 05:14:00;;;;;;;5.57;5.07;;;25.80;99.90;;;;;;4222247;28;20726;-70
2022/08/16 05:16:03;;;;;;;5.32;4.82;;;25.90;99.90;;;;;;4217210;28;20518;-70
2022/08/16 05:18:05;;;;;;;5.88;5.15;;;25.90;99.90;;;;;;4217324;28;20217;-70
2022/08/16 05:20:10;;;;;;;5.70;5.20;;;25.90;99.90;;;;;;4217783;28;20222;-70
2022/08/16 05:22:13;;;;;;;6.22;5.22;;;25.80;99.90;;;;;;4217233;28;20242;-70
2022/08/16 05:24:15;;;;;;;4.90;4.50;;;25.80;99.90;;;;;;4217559;28;20211;-70
2022/08/16 05:26:17;;;;;;;5.38;4.88;;;25.80;99.90;;;;;;4218618;28;20279;-71
2022/08/16 05:28:19;;;;;;;6.22;5.18;;;25.80;99.90;;;;;;4215549;28;20226;-70
2022/08/16 05:30:24;;;;;;;6.20;5.47;;;25.80;99.90;;;;;;4220505;28;20214;-70
2022/08/16 05:32:26;;;;;;;5.55;5.05;;;25.80;99.90;;;;;;4216621;28;20205;-71
2022/08/16 05:34:28;;;;;;;5.47;4.97;;;25.80;99.90;;;;;;4219889;28;20214;-70
2022/08/16 05:36:33;;;;;;;5.47;4.80;;;25.80;99.90;;;;;;4217742;28;20287;-70
2022/08/16 05:38:36;;;;;;;5.80;5.30;;;25.80;99.90;;;;;;4215393;28;20330;-70
2022/08/16 05:40:38;;;;;;;6.00;5.05;;;25.80;99.90;;;;;;4219621;28;20221;-70
2022/08/16 05:42:40;;;;;;;5.85;5.28;;;25.80;99.90;;;;;;4214158;28;20242;-70
2022/08/16 05:44:43;;;;;;;5.90;4.72;;;25.80;99.90;;;;;;4220212;28;20291;-70
2022/08/16 05:46:47;;;;;;;5.75;5.15;;;25.80;99.90;;;;;;4223967;28;20241;-71
2022/08/16 05:48:49;;;;;;;5.60;5.00;;;25.80;99.90;;;;;;4221482;27;20646;-70
2022/08/16 05:50:51;;;;;;;5.80;5.05;;;25.80;99.90;;;;;;4219626;28;20591;-70
2022/08/16 05:52:54;;;;;;;5.30;4.80;;;25.80;99.90;;;;;;4214464;28;20210;-70
2022/08/16 05:54:56;;;;;;;5.72;5.18;;;25.80;99.90;;;;;;4223108;27;20233;-70
2022/08/16 05:56:59;;;;;;;5.78;5.18;;;25.80;99.90;;;;;;4219909;28;20803;-70
2022/08/16 05:59:01;;;;;;;5.60;5.10;;;25.80;99.90;;;;;;4218215;28;20264;-70
2022/08/16 06:01:04;;;;;;;5.63;5.05;;;25.80;99.90;;;;;;4222893;28;20267;-70
2022/08/16 06:03:08;;;;;;;6.85;5.15;;;25.80;99.90;;;;;;4222959;27;20291;-71
2022/08/16 06:05:10;;;;;;;6.13;4.80;;;25.80;99.90;;;;;;4226013;27;20294;-70
2022/08/16 06:07:13;;;;;;;5.70;5.20;;;25.80;99.90;;;;;;4219685;28;20226;-70
2022/08/16 06:09:16;;;;;;;5.63;4.93;;;25.90;99.90;;;;;;4213238;28;20275;-70
2022/08/16 06:11:18;;;;;;;16.30;6.53;;;25.80;99.90;;;;;;4219790;27;20258;-71
2022/08/16 06:13:21;;;;;;;6.13;5.35;;;25.80;99.90;;;;;;4221217;28;20218;-71
2022/08/16 06:15:23;;;;;;;6.57;5.53;;;25.80;99.90;;;;;;4223566;27;20213;-71
2022/08/16 06:17:26;;;;;;;6.63;5.22;;;25.80;99.90;;;;;;4214022;28;20210;-71
2022/08/16 06:19:29;;;;;;;8.57;4.97;;;25.80;99.90;;;;;;4215165;27;20608;-71
2022/08/16 06:21:32;;;;;;;6.07;4.95;;;25.80;99.90;;;;;;4223004;27;20255;-71
2022/08/16 06:23:34;;;;;;;6.40;4.95;;;25.90;99.90;;;;;;4219094;28;20650;-71
2022/08/16 06:25:37;;;;;;;5.25;4.70;;;25.90;99.90;;;;;;4221633;28;20222;-71
2022/08/16 06:27:39;;;;;;;5.90;5.07;;;25.90;99.90;;;;;;4215910;27;21591;-71
2022/08/16 06:29:43;;;;;;;5.10;4.40;;;25.90;99.90;;;;;;4222885;27;20263;-71
2022/08/16 06:31:45;;;;;;;5.63;4.88;;;25.90;99.90;;;;;;4219769;27;21054;-71
2022/08/16 06:33:47;;;;;;;5.35;4.85;;;25.90;99.90;;;;;;4219459;28;20202;-71
2022/08/16 06:35:52;;;;;;;7.05;5.07;;;25.90;99.90;;;;;;4224937;28;20218;-71
2022/08/16 06:37:54;;;;;;;5.57;4.93;;;25.90;99.90;;;;;;4220781;28;20262;-71
2022/08/16 06:39:57;;;;;;;6.75;5.70;;;25.90;99.90;;;;;;4220779;28;20214;-71
2022/08/16 06:41:59;;;;;;;5.35;4.85;;;25.90;99.90;;;;;;4214197;28;20206;-71
2022/08/16 06:44:02;;;;;;;5.55;4.95;;;25.90;99.90;;;;;;4222079;28;20290;-71
2022/08/16 06:46:08;;;;;;;6.25;5.35;;;25.90;99.90;;;;;;4218322;28;20618;-71
2022/08/16 06:48:11;;;;;;;5.75;5.25;;;25.80;99.90;;;;;;4213591;28;20222;-71
2022/08/16 06:50:14;;;;;;;5.35;4.85;;;25.90;99.90;;;;;;4217140;28;20210;-71
2022/08/16 06:52:17;;;;;;;6.35;4.88;;;25.90;99.90;;;;;;4220665;28;20234;-71
2022/08/16 06:54:20;;;;;;;5.90;5.30;;;25.90;99.90;;;;;;4218019;28;20267;-71
2022/08/16 06:56:22;;;;;;;6.60;4.78;;;25.90;99.90;;;;;;4217303;28;20290;-71
2022/08/16 06:58:24;;;;;;;6.68;5.30;;;25.90;99.90;;;;;;4217966;28;20213;-71
2022/08/16 07:00:28;;;;;;;5.10;4.70;;;25.90;99.90;;;;;;4221396;28;20291;-71
2022/08/16 07:02:30;;;;;;;5.18;4.78;;;25.90;99.90;;;;;;4218057;28;20271;-70
2022/08/16 07:04:33;;;;;;;5.80;5.07;;;25.90;99.90;;;;;;4217724;28;20210;-70
2022/08/16 07:06:35;;;;;;;9.68;6.38;;;25.90;99.90;;;;;;4217176;28;20254;-70
2022/08/16 07:08:41;;;;;;;8.65;6.63;;;25.80;99.90;;;;;;4221365;27;20213;-70
2022/08/16 07:10:43;;;;;;;10.52;6.57;;;25.70;99.90;;;;;;4213255;28;20338;-71
2022/08/16 07:12:49;;;;;;;10.68;7.15;;;25.50;99.90;;;;;;4215030;28;20210;-71
2022/08/16 07:14:51;;;;;;;11.95;6.85;;;25.50;99.90;;;;;;4218784;28;20960;-70
2022/08/16 07:16:56;;;;;;;11.85;6.93;;;25.40;99.90;;;;;;4216772;28;20256;-70
2022/08/16 07:18:58;;;;;;;12.30;6.60;;;25.40;99.90;;;;;;4217613;28;20614;-70
2022/08/16 07:21:00;;;;;;;10.13;7.22;;;25.30;99.90;;;;;;4214785;28;22323;-70
2022/08/16 07:23:03;;;;;;;11.05;7.00;;;25.30;99.90;;;;;;4216366;28;20233;-71
2022/08/16 07:25:09;;;;;;;12.52;6.30;;;25.40;99.90;;;;;;4210550;28;20262;-70
2022/08/16 07:27:12;;;;;;;10.70;6.60;;;25.30;99.90;;;;;;4216997;28;20316;-70
2022/08/16 07:29:14;;;;;;;9.60;6.85;;;25.40;99.90;;;;;;4215701;28;20291;-71
2022/08/16 07:31:18;;;;;;;10.65;7.10;;;25.40;99.90;;;;;;4215040;28;20650;-70
2022/08/16 07:33:20;;;;;;;11.05;6.55;;;25.40;99.90;;;;;;4212437;28;20214;-70
2022/08/16 07:35:23;;;;;;;15.23;6.63;;;25.30;99.90;;;;;;4219526;27;20217;-71
2022/08/16 07:37:25;;;;;;;11.10;6.35;;;25.40;99.90;;;;;;4212457;28;20802;-70
2022/08/16 07:39:28;;;;;;;15.38;6.63;;;25.40;99.90;;;;;;4213527;28;20221;-71
2022/08/16 07:41:32;;;;;;;9.23;6.35;;;25.40;99.90;;;;;;4213520;28;20457;-71
2022/08/16 07:43:34;;;;;;;9.95;6.20;;;25.50;99.90;;;;;;4212192;28;20246;-71
2022/08/16 07:45:37;;;;;;;7.95;5.95;;;25.50;99.90;;;;;;4213238;28;20310;-70
2022/08/16 07:47:40;;;;;;;13.60;6.88;;;25.50;99.90;;;;;;4216914;28;20254;-71
2022/08/16 07:49:42;;;;;;;10.25;5.95;;;25.50;99.90;;;;;;4221957;28;20218;-71
2022/08/16 07:51:45;;;;;;;11.68;6.25;;;25.50;99.90;;;;;;4216273;28;20639;-70
2022/08/16 07:53:50;;;;;;;11.15;6.78;;;25.50;99.90;;;;;;4213863;28;20262;-70
2022/08/16 07:55:53;;;;;;;10.85;5.75;;;25.60;99.90;;;;;;4211125;28;20206;-70
2022/08/16 07:57:57;;;;;;;8.57;5.88;;;25.60;99.90;;;;;;4217816;28;20221;-71
2022/08/16 07:59:59;;;;;;;8.88;6.20;;;25.60;99.90;;;;;;4221797;28;20715;-70
2022/08/16 08:02:02;;;;;;;7.95;5.93;;;25.50;99.90;;;;;;4219524;28;20214;-70
2022/08/16 08:04:07;;;;;;;7.78;6.13;;;25.60;99.90;;;;;;4216387;28;20253;-70
2022/08/16 08:06:10;;;;;;;8.80;6.10;;;25.60;99.90;;;;;;4212902;28;20259;-71
2022/08/16 08:08:12;;;;;;;7.93;5.85;;;25.60;99.90;;;;;;4217400;28;20209;-70
2022/08/16 08:10:15;;;;;;;9.00;6.53;;;25.70;99.90;;;;;;4223709;28;20210;-70
2022/08/16 08:12:18;;;;;;;11.30;6.00;;;25.70;99.90;;;;;;4222017;28;20210;-70
2022/08/16 08:14:22;;;;;;;10.52;5.45;;;25.70;99.90;;;;;;4226320;28;20206;-70
2022/08/16 08:16:24;;;;;;;6.57;5.82;;;25.60;99.90;;;;;;4222658;27;20202;-70
2022/08/16 08:18:28;;;;;;;9.60;5.40;;;25.60;99.90;;;;;;4214980;28;20248;-70
2022/08/16 08:20:31;;;;;;;10.63;5.90;;;25.70;99.90;;;;;;4223391;28;20225;-70
2022/08/16 08:22:33;;;;;;;6.75;4.90;;;25.70;99.90;;;;;;4223883;27;20266;-70
2022/08/16 08:24:37;;;;;;;11.18;6.28;;;25.70;99.90;;;;;;4218301;28;20283;-71
2022/08/16 08:26:40;;;;;;;9.35;5.70;;;25.70;99.90;;;;;;4218787;28;20724;-70
2022/08/16 08:28:42;;;;;;;7.60;5.70;;;25.70;99.90;;;;;;4217756;28;20267;-71
2022/08/16 08:30:46;;;;;;;7.63;5.07;;;25.70;99.90;;;;;;4217628;27;20217;-69
2022/08/16 08:32:49;;;;;;;6.22;5.28;;;25.80;99.90;;;;;;4217391;28;20588;-70
2022/08/16 08:34:51;;;;;;;7.63;5.82;;;25.80;99.90;;;;;;4217415;28;20214;-71
2022/08/16 08:36:54;;;;;;;7.40;5.25;;;25.80;99.90;;;;;;4220687;28;20271;-70
2022/08/16 08:38:56;;;;;;;8.50;5.32;;;25.80;99.90;;;;;;4219139;27;20218;-70
2022/08/16 08:40:59;;;;;;;6.47;4.70;;;25.80;99.90;;;;;;4224138;28;20954;-71
2022/08/16 08:43:02;;;;;;;8.02;5.72;;;25.90;99.90;;;;;;4218526;27;20280;-71
2022/08/16 08:45:05;;;;;;;9.25;4.88;;;25.80;99.90;;;;;;4220116;28;20302;-71
2022/08/16 08:47:09;;;;;;;5.90;5.30;;;25.80;99.90;;;;;;4216808;28;20249;-71
2022/08/16 08:49:11;;;;;;;7.65;4.75;;;25.90;99.90;;;;;;4217880;28;20210;-71
2022/08/16 08:51:17;;;;;;;5.13;4.60;;;25.90;99.90;;;;;;4216493;28;20229;-71
2022/08/16 08:53:19;;;;;;;7.82;5.38;;;25.90;99.90;;;;;;4224142;27;20715;-71
2022/08/16 08:55:23;;;;;;;7.15;5.07;;;25.90;99.90;;;;;;4220562;28;20214;-71
2022/08/16 08:57:25;;;;;;;9.18;5.13;;;25.90;99.90;;;;;;4215928;27;20226;-71
2022/08/16 08:59:28;;;;;;;5.47;4.57;;;25.90;99.90;;;;;;4217092;27;20210;-71
2022/08/16 09:01:33;;;;;;;5.38;4.88;;;26.00;99.90;;;;;;4217532;28;20222;-71
2022/08/16 09:03:39;;;;;;;5.93;5.00;;;26.00;99.90;;;;;;4213113;28;20263;-72
2022/08/16 09:05:41;;;;;;;7.38;4.57;;;26.00;99.90;;;;;;4222299;27;20263;-71
2022/08/16 09:07:44;;;;;;;7.03;4.70;;;25.90;99.90;;;;;;4217162;28;20673;-72
2022/08/16 09:09:46;;;;;;;5.22;4.72;;;25.90;99.90;;;;;;4217311;28;20217;-72
2022/08/16 09:11:49;;;;;;;8.95;5.13;;;26.00;99.90;;;;;;4216958;28;20213;-71
2022/08/16 09:13:51;;;;;;;7.63;4.78;;;26.00;99.90;;;;;;4216060;27;20267;-70
2022/08/16 09:15:55;;;;;;;6.68;4.88;;;26.00;99.90;;;;;;4218171;28;20222;-71
2022/08/16 09:17:57;;;;;;;7.88;4.90;;;26.00;99.90;;;;;;4217544;28;20278;-71
2022/08/16 09:20:01;;;;;;;4.65;4.25;;;26.00;99.90;;;;;;4225221;27;20282;-71
2022/08/16 09:22:04;;;;;;;5.53;4.78;;;26.00;99.90;;;;;;4222298;28;20218;-70
2022/08/16 09:24:07;;;;;;;7.88;4.75;;;26.00;99.90;;;;;;4219176;28;20256;-71
2022/08/16 09:26:14;;;;;;;5.50;4.18;;;26.00;99.90;;;;;;4222786;27;20650;-71
2022/08/16 09:28:17;;;;;;;5.10;4.20;;;26.00;99.90;;;;;;4217298;28;20230;-71
2022/08/16 09:30:19;;;;;;;6.63;5.07;;;26.00;99.90;;;;;;4217905;27;20306;-71
2022/08/16 09:32:22;;;;;;;7.10;4.68;;;26.10;99.90;;;;;;4217615;28;20213;-71
2022/08/16 09:34:24;;;;;;;6.53;4.78;;;26.10;99.90;;;;;;4219135;28;20205;-72
2022/08/16 09:36:29;;;;;;;5.60;4.15;;;26.00;99.90;;;;;;4223638;27;20344;-72
2022/08/16 09:38:31;;;;;;;5.43;4.78;;;26.00;99.90;;;;;;4220556;27;20643;-73
2022/08/16 09:40:33;;;;;;;6.75;4.63;;;26.00;99.90;;;;;;4218903;27;20222;-72
2022/08/16 09:42:36;;;;;;;8.85;4.70;;;25.90;99.90;;;;;;4228192;27;20271;-73
2022/08/16 09:44:38;;;;;;;10.45;4.88;;;25.90;99.90;;;;;;4224206;28;20238;-72
2022/08/16 09:46:40;;;;;;;7.22;4.57;;;25.80;99.90;;;;;;4223084;28;20226;-72
2022/08/16 09:48:43;;;;;;;9.35;4.65;;;25.90;99.90;;;;;;4221578;27;20222;-71
2022/08/16 09:50:45;;;;;;;5.88;4.65;;;25.80;99.90;;;;;;4221831;27;20282;-71
2022/08/16 09:52:49;;;;;;;9.13;4.60;;;25.80;99.90;;;;;;4222360;27;20210;-72
2022/08/16 09:54:52;;;;;;;10.90;4.93;;;25.90;99.90;;;;;;4222258;27;20231;-73
2022/08/16 09:56:55;;;;;;;7.07;5.05;;;25.90;99.90;;;;;;4220369;27;20217;-72
2022/08/16 09:58:59;;;;;;;8.00;4.93;;;26.00;99.90;;;;;;4215182;28;20245;-72
2022/08/16 10:01:01;;;;;;;6.00;4.93;;;25.90;99.90;;;;;;4219075;28;20218;-72
2022/08/16 10:03:04;;;;;;;6.93;4.72;;;25.90;99.90;;;;;;4219060;28;20222;-72
2022/08/16 10:05:07;;;;;;;31.63;6.80;;;25.90;99.90;;;;;;4215799;28;20238;-72
2022/08/16 10:07:09;;;;;;;11.35;4.75;;;25.90;99.90;;;;;;4216999;27;20262;-72
2022/08/16 10:09:14;;;;;;;7.05;4.75;;;25.90;99.90;;;;;;4217251;27;20209;-72
2022/08/16 10:13:38;;;;;;;8.35;4.80;;;25.80;99.90;;;;;;4216257;28;20604;-72
2022/08/16 10:15:44;;;;;;;8.43;5.18;;;25.80;99.90;;;;;;4211480;28;20267;-72
2022/08/16 10:17:49;;;;;;;9.95;5.07;;;25.90;99.90;;;;;;4219274;27;20310;-72
2022/08/16 10:19:54;;;;;;;10.30;5.82;;;25.90;99.90;;;;;;4222257;27;20210;-72
2022/08/16 10:21:56;;;;;;;7.45;5.72;;;25.90;99.90;;;;;;4220469;27;20259;-72
2022/08/16 10:23:58;;;;;;;5.53;5.03;;;25.90;99.90;;;;;;4216719;27;20616;-72
2022/08/16 10:26:02;;;;;;;6.22;5.38;;;25.90;99.90;;;;;;4214499;28;20276;-72
2022/08/16 10:28:05;;;;;;;10.90;6.13;;;25.90;99.90;;;;;;4218746;27;20235;-72
2022/08/16 10:30:08;;;;;;;8.77;5.60;;;25.90;99.90;;;;;;4219000;27;20209;-72
2022/08/16 10:32:10;;;;;;;8.77;5.75;;;25.90;99.90;;;;;;4213054;27;20210;-72
2022/08/16 10:34:13;;;;;;;9.38;5.72;;;25.90;99.90;;;;;;4214792;27;20214;-72
2022/08/16 10:36:16;;;;;;;9.80;5.95;;;25.90;99.90;;;;;;4209091;28;20650;-72
2022/08/16 10:38:18;;;;;;;9.60;6.00;;;25.90;99.90;;;;;;4218238;28;20210;-72
2022/08/16 10:40:22;;;;;;;10.05;5.90;;;26.00;99.90;;;;;;4211424;27;20674;-72
2022/08/16 10:42:26;;;;;;;10.45;6.45;;;26.00;99.90;;;;;;4216327;27;20206;-72